sensor_id;sensor_type;location;lat;lon;timestamp;temperature;humidity
52903;DHT22;38765;53.176;7.090;2022-07-03T00:01:15;17.90;99.90
52903;DHT22;38765;53.176;7.090;2022-07-03T00:03:56;18.00;99.90
52903;DHT22;38765;53.176;7.090;2022-07-03T00:06:47;18.00;99.90
52903;DHT22;38765;53.176;7.090;2022-07-03T00:09:24;17.60;99.90
52903;DHT22;38765;53.176;7.090;2022-07-03T00:11:50;18.10;99.90
52903;DHT22;38765;53.176;7.090;2022-07-03T00:14:19;17.90;99.90
52903;DHT22;38765;53.176;7.090;2022-07-03T00:17:03;18.00;99.90
52903;DHT22;38765;53.176;7.090;2022-07-03T00:19:52;17.90;99.90
52903;DHT22;38765;53.176;7.090;2022-07-03T00:22:30;18.00;99.90
52903;DHT22;38765;53.176;7.090;2022-07-03T00:25:11;17.90;99.90
52903;DHT22;38765;53.176;7.090;2022-07-03T00:27:46;17.90;99.90
52903;DHT22;38765;53.176;7.090;2022-07-03T00:34:10;17.90;99.90
52903;DHT22;38765;53.176;7.090;2022-07-03T00:55:17;17.80;99.90
52903;DHT22;38765;53.176;7.090;2022-07-03T00:57:49;17.70;99.90
52903;DHT22;38765;53.176;7.090;2022-07-03T01:26:28;17.60;99.90
52903;DHT22;38765;53.176;7.090;2022-07-03T01:29:25;17.40;99.90
52903;DHT22;38765;53.176;7.090;2022-07-03T01:32:31;17.70;99.90
52903;DHT22;38765;53.176;7.090;2022-07-03T01:38:45;17.30;99.90
52903;DHT22;38765;53.176;7.090;2022-07-03T01:41:27;17.20;99.90
52903;DHT22;38765;53.176;7.090;2022-07-03T01:47:47;16.70;99.90
52903;DHT22;38765;53.176;7.090;2022-07-03T01:51:07;17.10;99.90
52903;DHT22;38765;53.176;7.090;2022-07-03T02:03:16;17.20;99.90
52903;DHT22;38765;53.176;7.090;2022-07-03T02:06:18;16.80;99.90
52903;DHT22;38765;53.176;7.090;2022-07-03T02:16:17;16.70;99.90
52903;DHT22;38765;53.176;7.090;2022-07-03T02:18:47;16.30;99.90
52903;DHT22;38765;53.176;7.090;2022-07-03T02:21:28;16.20;99.90
52903;DHT22;38765;53.176;7.090;2022-07-03T02:30:09;16.40;99.90
52903;DHT22;38765;53.176;7.090;2022-07-03T02:32:42;16.50;99.90
52903;DHT22;38765;53.176;7.090;2022-07-03T02:38:17;16.30;99.90
52903;DHT22;38765;53.176;7.090;2022-07-03T02:40:55;15.90;99.90
52903;DHT22;38765;53.176;7.090;2022-07-03T04:00:34;15.60;99.90
52903;DHT22;38765;53.176;7.090;2022-07-03T04:03:26;15.50;99.90
52903;DHT22;38765;53.176;7.090;2022-07-03T04:22:27;15.90;99.90
52903;DHT22;38765;53.176;7.090;2022-07-03T04:25:20;16.00;99.90
52903;DHT22;38765;53.176;7.090;2022-07-03T04:27:52;16.10;99.90
52903;DHT22;38765;53.176;7.090;2022-07-03T04:49:00;16.30;99.90
52903;DHT22;38765;53.176;7.090;2022-07-03T04:51:42;16.40;99.90
52903;DHT22;38765;53.176;7.090;2022-07-03T04:54:39;16.40;99.90
52903;DHT22;38765;53.176;7.090;2022-07-03T05:08:03;16.50;99.90
52903;DHT22;38765;53.176;7.090;2022-07-03T05:11:02;16.60;99.90
52903;DHT22;38765;53.176;7.090;2022-07-03T06:06:40;17.10;99.90
52903;DHT22;38765;53.176;7.090;2022-07-03T06:13:05;17.40;99.90
52903;DHT22;38765;53.176;7.090;2022-07-03T06:18:45;17.80;99.90
52903;DHT22;38765;53.176;7.090;2022-07-03T06:21:23;18.00;99.90
52903;DHT22;38765;53.176;7.090;2022-07-03T06:23:52;18.10;99.90
52903;DHT22;38765;53.176;7.090;2022-07-03T06:32:46;18.60;99.90
52903;DHT22;38765;53.176;7.090;2022-07-03T06:35:17;18.80;99.90
52903;DHT22;38765;53.176;7.090;2022-07-03T06:41:10;19.10;99.90
52903;DHT22;38765;53.176;7.090;2022-07-03T06:44:09;19.10;99.90
52903;DHT22;38765;53.176;7.090;2022-07-03T06:50:21;19.30;99.90
52903;DHT22;38765;53.176;7.090;2022-07-03T06:53:57;19.30;99.90
52903;DHT22;38765;53.176;7.090;2022-07-03T06:57:20;19.30;99.90
52903;DHT22;38765;53.176;7.090;2022-07-03T07:03:54;19.30;99.90
52903;DHT22;38765;53.176;7.090;2022-07-03T07:06:23;19.40;99.90
52903;DHT22;38765;53.176;7.090;2022-07-03T07:08:49;19.50;99.90
52903;DHT22;38765;53.176;7.090;2022-07-03T07:11:17;19.50;99.90
52903;DHT22;38765;53.176;7.090;2022-07-03T07:13:43;19.60;99.90
52903;DHT22;38765;53.176;7.090;2022-07-03T07:16:08;19.70;99.90
52903;DHT22;38765;53.176;7.090;2022-07-03T07:18:34;19.70;99.90
52903;DHT22;38765;53.176;7.090;2022-07-03T07:21:04;19.80;99.90
52903;DHT22;38765;53.176;7.090;2022-07-03T07:23:30;19.90;99.90
52903;DHT22;38765;53.176;7.090;2022-07-03T07:25:59;20.00;99.90
52903;DHT22;38765;53.176;7.090;2022-07-03T07:28:24;20.10;99.90
52903;DHT22;38765;53.176;7.090;2022-07-03T07:30:50;20.20;99.90
52903;DHT22;38765;53.176;7.090;2022-07-03T07:33:23;20.20;99.90
52903;DHT22;38765;53.176;7.090;2022-07-03T07:35:52;20.40;99.90
52903;DHT22;38765;53.176;7.090;2022-07-03T07:38:18;20.30;99.90
52903;DHT22;38765;53.176;7.090;2022-07-03T07:40:48;20.50;99.90
52903;DHT22;38765;53.176;7.090;2022-07-03T07:43:14;20.60;99.90
52903;DHT22;38765;53.176;7.090;2022-07-03T07:45:47;20.60;99.90
52903;DHT22;38765;53.176;7.090;2022-07-03T07:48:13;20.60;99.90
52903;DHT22;38765;53.176;7.090;2022-07-03T07:50:41;20.60;99.90
52903;DHT22;38765;53.176;7.090;2022-07-03T07:53:09;20.60;99.90
52903;DHT22;38765;53.176;7.090;2022-07-03T07:55:35;20.60;99.90
52903;DHT22;38765;53.176;7.090;2022-07-03T07:58:03;20.60;99.90
52903;DHT22;38765;53.176;7.090;2022-07-03T08:00:45;20.70;99.90
52903;DHT22;38765;53.176;7.090;2022-07-03T08:03:29;20.80;99.90
52903;DHT22;38765;53.176;7.090;2022-07-03T08:06:16;20.90;99.90
52903;DHT22;38765;53.176;7.090;2022-07-03T08:08:42;21.00;99.90
52903;DHT22;38765;53.176;7.090;2022-07-03T08:11:08;21.00;99.90
52903;DHT22;38765;53.176;7.090;2022-07-03T08:13:58;21.10;99.90
52903;DHT22;38765;53.176;7.090;2022-07-03T08:16:41;21.20;99.90
52903;DHT22;38765;53.176;7.090;2022-07-03T08:19:12;21.10;99.90
52903;DHT22;38765;53.176;7.090;2022-07-03T08:21:40;21.10;99.90
52903;DHT22;38765;53.176;7.090;2022-07-03T08:24:08;21.00;99.90
52903;DHT22;38765;53.176;7.090;2022-07-03T08:26:38;21.10;99.90
52903;DHT22;38765;53.176;7.090;2022-07-03T08:29:07;20.90;99.90
52903;DHT22;38765;53.176;7.090;2022-07-03T08:31:40;21.10;99.90
52903;DHT22;38765;53.176;7.090;2022-07-03T08:34:08;20.80;99.90
52903;DHT22;38765;53.176;7.090;2022-07-03T08:36:41;21.30;99.90
52903;DHT22;38765;53.176;7.090;2022-07-03T08:39:10;21.30;99.90
52903;DHT22;38765;53.176;7.090;2022-07-03T08:41:41;21.40;99.90
52903;DHT22;38765;53.176;7.090;2022-07-03T08:44:11;21.50;99.90
52903;DHT22;38765;53.176;7.090;2022-07-03T08:46:45;21.20;99.90
52903;DHT22;38765;53.176;7.090;2022-07-03T08:49:25;21.40;99.90
52903;DHT22;38765;53.176;7.090;2022-07-03T08:52:02;21.40;99.90
52903;DHT22;38765;53.176;7.090;2022-07-03T08:54:33;21.30;99.90
52903;DHT22;38765;53.176;7.090;2022-07-03T08:57:04;21.30;99.90
52903;DHT22;38765;53.176;7.090;2022-07-03T08:59:39;21.40;99.90
52903;DHT22;38765;53.176;7.090;2022-07-03T09:02:11;21.40;99.90
52903;DHT22;38765;53.176;7.090;2022-07-03T09:04:59;21.50;99.90
52903;DHT22;38765;53.176;7.090;2022-07-03T09:07:34;21.50;99.90
52903;DHT22;38765;53.176;7.090;2022-07-03T09:10:04;21.60;99.90
52903;DHT22;38765;53.176;7.090;2022-07-03T09:12:47;21.80;99.90
52903;DHT22;38765;53.176;7.090;2022-07-03T09:15:13;21.90;99.90
52903;DHT22;38765;53.176;7.090;2022-07-03T09:18:02;22.00;99.90
52903;DHT22;38765;53.176;7.090;2022-07-03T09:20:40;22.00;99.90
52903;DHT22;38765;53.176;7.090;2022-07-03T09:23:15;22.00;99.90
52903;DHT22;38765;53.176;7.090;2022-07-03T09:28:46;21.80;99.90
52903;DHT22;38765;53.176;7.090;2022-07-03T09:31:23;21.80;99.90
52903;DHT22;38765;53.176;7.090;2022-07-03T09:34:03;21.80;99.90
52903;DHT22;38765;53.176;7.090;2022-07-03T09:36:38;21.80;99.90
52903;DHT22;38765;53.176;7.090;2022-07-03T09:42:18;21.90;99.90
52903;DHT22;38765;53.176;7.090;2022-07-03T09:44:55;21.80;99.90
52903;DHT22;38765;53.176;7.090;2022-07-03T09:47:24;21.80;99.90
52903;DHT22;38765;53.176;7.090;2022-07-03T09:53:06;21.80;99.90
52903;DHT22;38765;53.176;7.090;2022-07-03T09:55:32;21.80;99.90
52903;DHT22;38765;53.176;7.090;2022-07-03T09:57:58;21.80;99.90
52903;DHT22;38765;53.176;7.090;2022-07-03T10:00:27;21.80;99.90
52903;DHT22;38765;53.176;7.090;2022-07-03T10:03:03;21.90;99.90
52903;DHT22;38765;53.176;7.090;2022-07-03T10:08:17;22.00;99.90
52903;DHT22;38765;53.176;7.090;2022-07-03T10:10:45;22.10;99.90
52903;DHT22;38765;53.176;7.090;2022-07-03T10:13:16;22.10;99.90
52903;DHT22;38765;53.176;7.090;2022-07-03T10:15:47;22.10;99.90
52903;DHT22;38765;53.176;7.090;2022-07-03T10:18:15;22.10;99.90
52903;DHT22;38765;53.176;7.090;2022-07-03T10:20:47;22.20;99.90
52903;DHT22;38765;53.176;7.090;2022-07-03T10:23:21;22.20;99.90
52903;DHT22;38765;53.176;7.090;2022-07-03T10:25:48;22.30;99.90
52903;DHT22;38765;53.176;7.090;2022-07-03T10:28:31;22.40;99.90
52903;DHT22;38765;53.176;7.090;2022-07-03T10:31:03;22.40;99.90
52903;DHT22;38765;53.176;7.090;2022-07-03T10:33:28;22.50;99.90
52903;DHT22;38765;53.176;7.090;2022-07-03T10:36:08;22.60;99.90
52903;DHT22;38765;53.176;7.090;2022-07-03T10:50:32;22.90;99.90
52903;DHT22;38765;53.176;7.090;2022-07-03T10:56:03;23.20;99.90
52903;DHT22;38765;53.176;7.090;2022-07-03T10:58:31;23.30;99.90
52903;DHT22;38765;53.176;7.090;2022-07-03T11:00:59;23.40;99.90
52903;DHT22;38765;53.176;7.090;2022-07-03T11:06:09;23.40;99.90
52903;DHT22;38765;53.176;7.090;2022-07-03T11:09:00;23.40;99.90
52903;DHT22;38765;53.176;7.090;2022-07-03T11:11:43;23.40;99.90
52903;DHT22;38765;53.176;7.090;2022-07-03T11:14:28;23.50;99.90
52903;DHT22;38765;53.176;7.090;2022-07-03T11:25:49;23.70;99.90
52903;DHT22;38765;53.176;7.090;2022-07-03T11:31:18;23.60;99.90
52903;DHT22;38765;53.176;7.090;2022-07-03T11:36:35;23.80;99.90
52903;DHT22;38765;53.176;7.090;2022-07-03T11:39:10;24.00;99.90
52903;DHT22;38765;53.176;7.090;2022-07-03T11:44:26;24.40;99.90
52903;DHT22;38765;53.176;7.090;2022-07-03T11:46:51;24.30;99.90
52903;DHT22;38765;53.176;7.090;2022-07-03T11:49:19;24.30;99.90
52903;DHT22;38765;53.176;7.090;2022-07-03T11:51:55;24.10;99.90
52903;DHT22;38765;53.176;7.090;2022-07-03T11:54:21;24.10;99.90
52903;DHT22;38765;53.176;7.090;2022-07-03T11:56:47;24.00;99.90
52903;DHT22;38765;53.176;7.090;2022-07-03T11:59:13;24.10;99.90
52903;DHT22;38765;53.176;7.090;2022-07-03T12:01:39;24.10;99.90
52903;DHT22;38765;53.176;7.090;2022-07-03T12:04:08;24.30;99.90
52903;DHT22;38765;53.176;7.090;2022-07-03T12:06:41;24.30;99.90
52903;DHT22;38765;53.176;7.090;2022-07-03T12:12:02;24.50;99.90
52903;DHT22;38765;53.176;7.090;2022-07-03T12:14:35;24.60;99.90
52903;DHT22;38765;53.176;7.090;2022-07-03T12:17:01;24.70;99.90
52903;DHT22;38765;53.176;7.090;2022-07-03T12:19:29;24.70;99.90
52903;DHT22;38765;53.176;7.090;2022-07-03T12:21:54;24.70;99.90
52903;DHT22;38765;53.176;7.090;2022-07-03T12:24:20;24.70;99.90
52903;DHT22;38765;53.176;7.090;2022-07-03T12:26:47;24.70;99.90
52903;DHT22;38765;53.176;7.090;2022-07-03T12:29:13;24.70;99.90
52903;DHT22;38765;53.176;7.090;2022-07-03T12:31:44;24.70;99.90
52903;DHT22;38765;53.176;7.090;2022-07-03T12:34:11;24.50;99.90
52903;DHT22;38765;53.176;7.090;2022-07-03T12:36:37;24.30;99.90
52903;DHT22;38765;53.176;7.090;2022-07-03T12:39:05;24.40;99.90
52903;DHT22;38765;53.176;7.090;2022-07-03T12:41:31;24.60;99.90
52903;DHT22;38765;53.176;7.090;2022-07-03T12:43:57;24.70;99.90
52903;DHT22;38765;53.176;7.090;2022-07-03T12:46:26;24.70;99.90
52903;DHT22;38765;53.176;7.090;2022-07-03T12:48:54;24.60;99.90
52903;DHT22;38765;53.176;7.090;2022-07-03T12:51:36;24.60;99.90
52903;DHT22;38765;53.176;7.090;2022-07-03T12:54:03;24.80;99.90
52903;DHT22;38765;53.176;7.090;2022-07-03T12:56:31;24.80;99.90
52903;DHT22;38765;53.176;7.090;2022-07-03T12:58:57;24.80;99.90
52903;DHT22;38765;53.176;7.090;2022-07-03T13:01:41;24.70;99.90
52903;DHT22;38765;53.176;7.090;2022-07-03T13:04:07;24.90;99.90
52903;DHT22;38765;53.176;7.090;2022-07-03T13:06:42;25.00;99.90
52903;DHT22;38765;53.176;7.090;2022-07-03T13:09:10;25.10;99.90
52903;DHT22;38765;53.176;7.090;2022-07-03T13:11:39;25.00;99.90
52903;DHT22;38765;53.176;7.090;2022-07-03T13:14:06;24.80;99.90
52903;DHT22;38765;53.176;7.090;2022-07-03T13:16:36;24.50;99.90
52903;DHT22;38765;53.176;7.090;2022-07-03T13:19:03;24.50;99.90
52903;DHT22;38765;53.176;7.090;2022-07-03T13:21:32;24.60;99.90
52903;DHT22;38765;53.176;7.090;2022-07-03T13:23:57;24.60;99.90
52903;DHT22;38765;53.176;7.090;2022-07-03T13:26:23;24.50;99.90
52903;DHT22;38765;53.176;7.090;2022-07-03T13:28:52;24.40;99.90
52903;DHT22;38765;53.176;7.090;2022-07-03T13:31:17;24.30;99.90
52903;DHT22;38765;53.176;7.090;2022-07-03T13:33:45;24.20;99.90
52903;DHT22;38765;53.176;7.090;2022-07-03T13:36:11;24.10;99.90
52903;DHT22;38765;53.176;7.090;2022-07-03T13:38:37;23.90;99.90
52903;DHT22;38765;53.176;7.090;2022-07-03T13:41:05;23.70;99.90
52903;DHT22;38765;53.176;7.090;2022-07-03T13:43:31;23.70;99.90
52903;DHT22;38765;53.176;7.090;2022-07-03T13:45:56;23.90;99.90
52903;DHT22;38765;53.176;7.090;2022-07-03T13:48:25;23.90;99.90
52903;DHT22;38765;53.176;7.090;2022-07-03T13:50:51;23.60;99.90
52903;DHT22;38765;53.176;7.090;2022-07-03T13:53:16;23.30;99.90
52903;DHT22;38765;53.176;7.090;2022-07-03T13:55:42;23.10;99.90
52903;DHT22;38765;53.176;7.090;2022-07-03T13:58:08;23.00;99.90
52903;DHT22;38765;53.176;7.090;2022-07-03T14:00:36;23.10;99.90
52903;DHT22;38765;53.176;7.090;2022-07-03T14:03:02;22.60;99.90
52903;DHT22;38765;53.176;7.090;2022-07-03T14:05:28;22.50;99.90
52903;DHT22;38765;53.176;7.090;2022-07-03T14:07:54;22.30;99.90
52903;DHT22;38765;53.176;7.090;2022-07-03T14:10:22;22.40;99.90
52903;DHT22;38765;53.176;7.090;2022-07-03T14:12:50;22.30;99.90
52903;DHT22;38765;53.176;7.090;2022-07-03T14:15:16;22.10;99.90
52903;DHT22;38765;53.176;7.090;2022-07-03T14:17:42;22.00;99.90
52903;DHT22;38765;53.176;7.090;2022-07-03T14:20:09;21.90;99.90
52903;DHT22;38765;53.176;7.090;2022-07-03T14:22:35;21.70;99.90
52903;DHT22;38765;53.176;7.090;2022-07-03T14:25:00;21.60;99.90
52903;DHT22;38765;53.176;7.090;2022-07-03T14:27:26;21.60;99.90
52903;DHT22;38765;53.176;7.090;2022-07-03T14:30:13;21.40;99.90
52903;DHT22;38765;53.176;7.090;2022-07-03T14:33:18;21.70;99.90
52903;DHT22;38765;53.176;7.090;2022-07-03T14:35:44;21.30;99.90
52903;DHT22;38765;53.176;7.090;2022-07-03T14:38:12;21.30;99.90
52903;DHT22;38765;53.176;7.090;2022-07-03T14:40:40;21.30;99.90
52903;DHT22;38765;53.176;7.090;2022-07-03T14:43:06;21.20;99.90
52903;DHT22;38765;53.176;7.090;2022-07-03T14:45:32;21.10;99.90
52903;DHT22;38765;53.176;7.090;2022-07-03T14:47:57;21.10;99.90
52903;DHT22;38765;53.176;7.090;2022-07-03T14:50:23;21.00;99.90
52903;DHT22;38765;53.176;7.090;2022-07-03T14:52:49;20.80;99.90
52903;DHT22;38765;53.176;7.090;2022-07-03T14:55:16;20.70;99.90
52903;DHT22;38765;53.176;7.090;2022-07-03T15:00:29;20.30;99.90
52903;DHT22;38765;53.176;7.090;2022-07-03T15:03:07;19.90;99.90
52903;DHT22;38765;53.176;7.090;2022-07-03T15:05:44;19.40;99.90
52903;DHT22;38765;53.176;7.090;2022-07-03T15:08:15;19.30;99.90
52903;DHT22;38765;53.176;7.090;2022-07-03T15:10:43;19.00;99.90
52903;DHT22;38765;53.176;7.090;2022-07-03T15:13:09;18.50;99.90
52903;DHT22;38765;53.176;7.090;2022-07-03T15:15:35;18.00;99.90
52903;DHT22;38765;53.176;7.090;2022-07-03T15:18:04;18.10;99.90
52903;DHT22;38765;53.176;7.090;2022-07-03T15:20:31;17.80;99.90
52903;DHT22;38765;53.176;7.090;2022-07-03T15:22:57;17.60;99.90
52903;DHT22;38765;53.176;7.090;2022-07-03T15:25:24;17.40;99.90
52903;DHT22;38765;53.176;7.090;2022-07-03T15:27:51;17.30;99.90
52903;DHT22;38765;53.176;7.090;2022-07-03T15:30:21;17.30;99.90
52903;DHT22;38765;53.176;7.090;2022-07-03T15:32:48;17.00;99.90
52903;DHT22;38765;53.176;7.090;2022-07-03T15:35:14;17.20;99.90
52903;DHT22;38765;53.176;7.090;2022-07-03T15:37:44;17.20;99.90
52903;DHT22;38765;53.176;7.090;2022-07-03T15:40:34;17.10;99.90
52903;DHT22;38765;53.176;7.090;2022-07-03T15:47:34;17.20;99.90
52903;DHT22;38765;53.176;7.090;2022-07-03T15:51:27;17.80;99.90
52903;DHT22;38765;53.176;7.090;2022-07-03T15:53:58;18.00;99.90
52903;DHT22;38765;53.176;7.090;2022-07-03T15:56:25;18.40;99.90
52903;DHT22;38765;53.176;7.090;2022-07-03T15:58:51;18.60;99.90
52903;DHT22;38765;53.176;7.090;2022-07-03T16:01:21;18.30;99.90
52903;DHT22;38765;53.176;7.090;2022-07-03T16:04:08;18.40;99.90
52903;DHT22;38765;53.176;7.090;2022-07-03T16:06:38;18.60;99.90
52903;DHT22;38765;53.176;7.090;2022-07-03T16:09:06;18.70;99.90
52903;DHT22;38765;53.176;7.090;2022-07-03T16:11:31;18.80;99.90
52903;DHT22;38765;53.176;7.090;2022-07-03T16:13:58;18.90;99.90
52903;DHT22;38765;53.176;7.090;2022-07-03T16:16:30;19.00;99.90
52903;DHT22;38765;53.176;7.090;2022-07-03T16:18:55;18.90;99.90
52903;DHT22;38765;53.176;7.090;2022-07-03T16:21:22;18.90;99.90
52903;DHT22;38765;53.176;7.090;2022-07-03T16:23:48;18.90;99.90
52903;DHT22;38765;53.176;7.090;2022-07-03T16:26:15;18.90;99.90
52903;DHT22;38765;53.176;7.090;2022-07-03T16:28:41;19.00;99.90
52903;DHT22;38765;53.176;7.090;2022-07-03T16:31:08;18.90;99.90
52903;DHT22;38765;53.176;7.090;2022-07-03T16:33:36;18.80;99.90
52903;DHT22;38765;53.176;7.090;2022-07-03T16:36:11;18.80;99.90
52903;DHT22;38765;53.176;7.090;2022-07-03T16:38:41;18.70;99.90
52903;DHT22;38765;53.176;7.090;2022-07-03T16:41:10;18.60;99.90
52903;DHT22;38765;53.176;7.090;2022-07-03T16:43:38;18.70;99.90
52903;DHT22;38765;53.176;7.090;2022-07-03T16:46:04;18.70;99.90
52903;DHT22;38765;53.176;7.090;2022-07-03T16:48:30;18.80;99.90
52903;DHT22;38765;53.176;7.090;2022-07-03T16:50:59;18.80;99.90
52903;DHT22;38765;53.176;7.090;2022-07-03T16:53:27;18.90;99.90
52903;DHT22;38765;53.176;7.090;2022-07-03T16:55:53;18.90;99.90
52903;DHT22;38765;53.176;7.090;2022-07-03T16:58:19;19.20;99.90
52903;DHT22;38765;53.176;7.090;2022-07-03T17:00:47;19.30;99.90
52903;DHT22;38765;53.176;7.090;2022-07-03T17:03:13;19.40;99.90
52903;DHT22;38765;53.176;7.090;2022-07-03T17:05:41;19.40;99.90
52903;DHT22;38765;53.176;7.090;2022-07-03T17:08:07;19.40;99.90
52903;DHT22;38765;53.176;7.090;2022-07-03T17:10:33;19.40;99.90
52903;DHT22;38765;53.176;7.090;2022-07-03T17:12:58;19.30;99.90
52903;DHT22;38765;53.176;7.090;2022-07-03T17:15:25;19.30;99.90
52903;DHT22;38765;53.176;7.090;2022-07-03T17:17:56;19.10;99.90
52903;DHT22;38765;53.176;7.090;2022-07-03T17:20:24;19.00;99.90
52903;DHT22;38765;53.176;7.090;2022-07-03T17:22:57;18.90;99.90
52903;DHT22;38765;53.176;7.090;2022-07-03T17:25:26;18.80;99.90
52903;DHT22;38765;53.176;7.090;2022-07-03T17:27:58;18.70;99.90
52903;DHT22;38765;53.176;7.090;2022-07-03T17:30:43;18.60;99.90
52903;DHT22;38765;53.176;7.090;2022-07-03T17:33:09;18.50;99.90
52903;DHT22;38765;53.176;7.090;2022-07-03T17:35:36;18.40;99.90
52903;DHT22;38765;53.176;7.090;2022-07-03T17:38:06;18.30;99.90
52903;DHT22;38765;53.176;7.090;2022-07-03T17:40:32;18.30;99.90
52903;DHT22;38765;53.176;7.090;2022-07-03T17:42:58;18.40;99.90
52903;DHT22;38765;53.176;7.090;2022-07-03T17:45:25;18.50;99.90
52903;DHT22;38765;53.176;7.090;2022-07-03T17:47:51;18.70;99.90
52903;DHT22;38765;53.176;7.090;2022-07-03T17:50:18;18.90;99.90
52903;DHT22;38765;53.176;7.090;2022-07-03T17:52:44;19.00;99.90
52903;DHT22;38765;53.176;7.090;2022-07-03T17:55:12;18.80;99.90
52903;DHT22;38765;53.176;7.090;2022-07-03T17:57:40;18.70;99.90
52903;DHT22;38765;53.176;7.090;2022-07-03T18:00:10;18.60;99.90
52903;DHT22;38765;53.176;7.090;2022-07-03T18:02:37;18.60;99.90
52903;DHT22;38765;53.176;7.090;2022-07-03T18:05:04;18.70;99.90
52903;DHT22;38765;53.176;7.090;2022-07-03T18:07:46;18.60;99.90
52903;DHT22;38765;53.176;7.090;2022-07-03T18:10:18;18.60;99.90
52903;DHT22;38765;53.176;7.090;2022-07-03T18:12:55;18.60;99.90
52903;DHT22;38765;53.176;7.090;2022-07-03T18:15:40;18.50;99.90
52903;DHT22;38765;53.176;7.090;2022-07-03T18:18:17;18.50;99.90
52903;DHT22;38765;53.176;7.090;2022-07-03T18:20:47;18.40;99.90
52903;DHT22;38765;53.176;7.090;2022-07-03T18:23:14;18.30;99.90
52903;DHT22;38765;53.176;7.090;2022-07-03T18:25:42;18.20;99.90
52903;DHT22;38765;53.176;7.090;2022-07-03T18:28:09;18.20;99.90
52903;DHT22;38765;53.176;7.090;2022-07-03T18:30:38;18.10;99.90
52903;DHT22;38765;53.176;7.090;2022-07-03T18:33:04;18.10;99.90
52903;DHT22;38765;53.176;7.090;2022-07-03T18:35:30;18.10;99.90
52903;DHT22;38765;53.176;7.090;2022-07-03T18:37:57;18.10;99.90
52903;DHT22;38765;53.176;7.090;2022-07-03T18:40:23;18.10;99.90
52903;DHT22;38765;53.176;7.090;2022-07-03T18:42:49;18.10;99.90
52903;DHT22;38765;53.176;7.090;2022-07-03T18:45:15;18.10;99.90
52903;DHT22;38765;53.176;7.090;2022-07-03T18:47:44;18.10;99.90
52903;DHT22;38765;53.176;7.090;2022-07-03T18:50:09;18.10;99.90
52903;DHT22;38765;53.176;7.090;2022-07-03T18:52:37;18.10;99.90
52903;DHT22;38765;53.176;7.090;2022-07-03T18:55:16;18.10;99.90
52903;DHT22;38765;53.176;7.090;2022-07-03T19:00:37;18.00;99.90
52903;DHT22;38765;53.176;7.090;2022-07-03T19:03:13;18.00;99.90
52903;DHT22;38765;53.176;7.090;2022-07-03T19:05:52;17.90;99.90
52903;DHT22;38765;53.176;7.090;2022-07-03T19:11:03;18.00;99.90
52903;DHT22;38765;53.176;7.090;2022-07-03T19:13:33;18.00;99.90
52903;DHT22;38765;53.176;7.090;2022-07-03T19:15:59;18.00;99.90
52903;DHT22;38765;53.176;7.090;2022-07-03T19:18:26;18.00;99.90
52903;DHT22;38765;53.176;7.090;2022-07-03T19:20:52;18.00;99.90
52903;DHT22;38765;53.176;7.090;2022-07-03T19:23:18;18.00;99.90
52903;DHT22;38765;53.176;7.090;2022-07-03T19:25:44;18.00;99.90
52903;DHT22;38765;53.176;7.090;2022-07-03T19:28:09;18.00;99.90
52903;DHT22;38765;53.176;7.090;2022-07-03T19:30:35;18.00;99.90
52903;DHT22;38765;53.176;7.090;2022-07-03T19:33:01;17.90;99.90
52903;DHT22;38765;53.176;7.090;2022-07-03T19:35:27;17.90;99.90
52903;DHT22;38765;53.176;7.090;2022-07-03T19:37:53;17.80;99.90
52903;DHT22;38765;53.176;7.090;2022-07-03T19:40:18;17.70;99.90
52903;DHT22;38765;53.176;7.090;2022-07-03T19:42:44;17.70;99.90
52903;DHT22;38765;53.176;7.090;2022-07-03T19:45:11;17.70;99.90
52903;DHT22;38765;53.176;7.090;2022-07-03T19:47:36;17.60;99.90
52903;DHT22;38765;53.176;7.090;2022-07-03T19:50:03;17.60;99.90
52903;DHT22;38765;53.176;7.090;2022-07-03T19:52:31;17.60;99.90
52903;DHT22;38765;53.176;7.090;2022-07-03T19:54:56;17.60;99.90
52903;DHT22;38765;53.176;7.090;2022-07-03T19:57:22;17.60;99.90
52903;DHT22;38765;53.176;7.090;2022-07-03T19:59:48;17.60;99.90
52903;DHT22;38765;53.176;7.090;2022-07-03T20:02:13;17.60;99.90
52903;DHT22;38765;53.176;7.090;2022-07-03T20:04:39;17.50;99.90
52903;DHT22;38765;53.176;7.090;2022-07-03T20:07:07;17.40;99.90
52903;DHT22;38765;53.176;7.090;2022-07-03T20:09:33;17.40;99.90
52903;DHT22;38765;53.176;7.090;2022-07-03T20:11:58;17.40;99.90
52903;DHT22;38765;53.176;7.090;2022-07-03T20:14:24;17.30;99.90
52903;DHT22;38765;53.176;7.090;2022-07-03T20:16:52;17.30;99.90
52903;DHT22;38765;53.176;7.090;2022-07-03T20:19:18;17.30;99.90
52903;DHT22;38765;53.176;7.090;2022-07-03T20:21:44;17.20;99.90
52903;DHT22;38765;53.176;7.090;2022-07-03T20:24:10;17.20;99.90
52903;DHT22;38765;53.176;7.090;2022-07-03T20:26:54;17.20;99.90
52903;DHT22;38765;53.176;7.090;2022-07-03T20:29:20;17.10;99.90
52903;DHT22;38765;53.176;7.090;2022-07-03T20:31:46;17.10;99.90
52903;DHT22;38765;53.176;7.090;2022-07-03T20:34:12;17.10;99.90
52903;DHT22;38765;53.176;7.090;2022-07-03T20:36:38;17.00;99.90
52903;DHT22;38765;53.176;7.090;2022-07-03T20:39:11;17.00;99.90
52903;DHT22;38765;53.176;7.090;2022-07-03T20:41:37;16.90;99.90
52903;DHT22;38765;53.176;7.090;2022-07-03T20:44:03;16.90;99.90
52903;DHT22;38765;53.176;7.090;2022-07-03T20:46:34;16.80;99.90
52903;DHT22;38765;53.176;7.090;2022-07-03T20:49:00;16.80;99.90
52903;DHT22;38765;53.176;7.090;2022-07-03T20:51:26;16.70;99.90
52903;DHT22;38765;53.176;7.090;2022-07-03T20:53:51;16.10;99.90
52903;DHT22;38765;53.176;7.090;2022-07-03T20:56:18;16.60;99.90
52903;DHT22;38765;53.176;7.090;2022-07-03T20:58:43;16.50;99.90
52903;DHT22;38765;53.176;7.090;2022-07-03T21:01:09;16.40;99.90
52903;DHT22;38765;53.176;7.090;2022-07-03T21:03:37;16.50;99.90
52903;DHT22;38765;53.176;7.090;2022-07-03T21:06:03;16.40;99.90
52903;DHT22;38765;53.176;7.090;2022-07-03T21:08:58;16.40;99.90
52903;DHT22;38765;53.176;7.090;2022-07-03T21:11:24;16.40;99.90
52903;DHT22;38765;53.176;7.090;2022-07-03T21:13:57;16.30;99.90
52903;DHT22;38765;53.176;7.090;2022-07-03T21:16:26;16.30;99.90
52903;DHT22;38765;53.176;7.090;2022-07-03T21:18:56;16.20;99.90
52903;DHT22;38765;53.176;7.090;2022-07-03T21:21:22;16.20;99.90
52903;DHT22;38765;53.176;7.090;2022-07-03T21:23:48;16.10;99.90
52903;DHT22;38765;53.176;7.090;2022-07-03T21:26:14;16.10;99.90
52903;DHT22;38765;53.176;7.090;2022-07-03T21:28:42;16.10;99.90
52903;DHT22;38765;53.176;7.090;2022-07-03T21:31:07;16.00;99.90
52903;DHT22;38765;53.176;7.090;2022-07-03T21:33:35;16.00;99.90
52903;DHT22;38765;53.176;7.090;2022-07-03T21:36:01;16.00;99.90
52903;DHT22;38765;53.176;7.090;2022-07-03T21:38:27;15.90;99.90
52903;DHT22;38765;53.176;7.090;2022-07-03T21:40:52;15.90;99.90